Login to view Products
 
Saturday, February 24, 2024 (19:42 UTC)
Dubai International Airport
Last Updated: 24-Feb-2024 (19:41Z)
Wind Dir/Speed: SSW at 05 kt
Temperature: 22.9°C
Rel. Humidity: 76 %
Pressure: 1013.3 hPa
Visibility: 8602 m
  • METAR OMDB 241930Z 20005KT 8000 NSC 23/19 Q1013 NOSIG
  • TAF OMDB 241700Z 2418/2600 18005KT 8000 NSC PROB30 2502/2505 4000 HZ BECMG 2509/2511 35012KT PROB30 TEMPO 2511/2517 VRB15G25KT 4000 SHRA FEW040TCU BECMG 2514/2516 13008KT BECMG 2520/2522 28012KT PROB30 2522/2600 BKN010=
19-- D:\Input Parser\Destinations\Final\17\OMDB_TAF.txt 24/02/2024-- 24/02/2024-- 3